• Join FlightAware (Why Join?)
  • Login
  • US Flag 
06:16PM EDT


 

Airport Tracker/Info


-or-


 

Live Flight TrackerFlight Track Log ✈ DAL863 ✈ 21-Apr-2013 ✈ KJFK - KLAX

Flight Track Log - Related Links

Times and Time Zones

All times are in EDT time to prevent confusion due to time zone crossing. See the DAL863 flight status page for this flight to view local times or setup timezone preferences in your user account.

Time Position Orientation Groundspeed Altitude Reporting Facility
EDT Latitude Longitude Course Direction KTS MPH feet Rate Location/Type
12:11PM 40.6100 -73.8903 270° West 236 272 2,800  Level New York Center
12:12PM 40.9707 -73.7667 North  Level FlightAware Approximate
12:12PM 40.5586 -73.8606 156° South 276 318 5,400  Level New York Center
12:13PM 41.0831 -73.7667 North  Level FlightAware Approximate
12:13PM 40.5833 -73.7500 74° East 257 296 6,000  Level New York TRACON
12:14PM 41.1200 -73.8901 304° West  Level FlightAware Approximate
12:14PM 40.6333 -73.6667 52° Northeast 264 304 8,100  Level New York TRACON
12:15PM 41.1500 -74.0312 270° West  Level FlightAware Approximate
12:15PM 40.6667 -73.5667 66° East 296 341 10,500  Level New York TRACON
12:16PM 41.1667 -74.1738 270° West  Level FlightAware Approximate
12:16PM 40.7500 -73.5500 North 329 379 11,500  Level New York TRACON
12:17PM 40.8500 -73.5833 346° North 345 397 13,900 2,280 Climbing New York TRACON
12:19PM 41.0025 -73.6994 330° Northwest 374 430 18,000 1,920 Climbing New York Center
12:20PM 41.0944 -73.7667 331° Northwest 374 430 19,300 1,560 Climbing New York Center
12:21PM 41.1350 -73.8897 294° West 351 404 21,100 1,680 Climbing New York Center
12:22PM 41.1522 -74.0256 280° West 351 404 22,700 1,560 Climbing New York Center
12:23PM 41.1294 -74.1619 258° West 357 411 24,300 1,620 Climbing New York Center
12:24PM 41.1006 -74.2956 254° West 362 417 26,000 1,560 Climbing New York Center
12:25PM 41.0756 -74.4344 257° West 375 432 27,400 1,320 Climbing New York Center
12:26PM 41.0483 -74.5761 256° West 393 452 28,700 1,440 Climbing New York Center
12:27PM 41.0186 -74.7175 254° West 400 460 30,400 1,680 Climbing New York Center
12:28PM 40.9931 -74.8561 256° West 400 460 32,200 1,560 Climbing New York Center
12:29PM 40.9633 -74.9889 254° West 389 448 33,500 1,200 Climbing New York Center
12:30PM 40.9297 -75.1158 251° West 383 441 34,600 1,020 Climbing New York Center
12:31PM 40.8953 -75.2539 252° West 378 435 35,600 660 Climbing New York Center
12:32PM 40.8694 -75.3867 256° West 383 441 36,000 180 Climbing New York Center
12:33PM 40.8392 -75.5189 253° West 383 441 36,000  Level New York Center
12:34PM 40.8044 -75.6508 251° West 383 441 36,000  Level New York Center
12:35PM 40.7761 -75.7831 254° West 377 434 36,000  Level New York Center
12:36PM 40.7433 -75.9150 252° West 377 434 36,000  Level New York Center
12:37PM 40.7125 -76.0467 253° West 377 434 36,000  Level New York Center
12:38PM 40.6794 -76.1811 252° West 377 434 36,000  Level New York Center
12:39PM 40.6731 -76.3147 266° West 363 418 36,000  Level New York Center
12:40PM 40.6956 -76.4561 282° West 377 434 36,000  Level New York Center
12:41PM 40.7158 -76.5975 281° West 389 448 36,000  Level New York Center
12:42PM 40.7381 -76.7364 282° West 394 453 36,000  Level New York Center
12:43PM 40.7561 -76.8750 280° West 389 448 36,000  Level New York Center
12:44PM 40.7781 -77.0139 282° West 389 448 36,000  Level New York Center
12:45PM 40.7975 -77.1556 280° West 395 455 36,000  Level New York Center
12:46PM 40.8169 -77.2944 281° West 395 455 36,000  Level New York Center
12:47PM 40.8375 -77.4144 283° West 395 455 36,000  Level New York Center
12:49PM 40.8750 -77.7025 280° West 399 459 36,000  Level Cleveland Center
12:50PM 40.8931 -77.8417 280° West 399 459 36,000  Level Cleveland Center
12:51PM 40.9131 -77.9811 281° West 393 452 36,000  Level Cleveland Center
12:52PM 40.9308 -78.1233 279° West 393 452 36,000  Level Cleveland Center
12:53PM 40.9506 -78.2656 280° West 388 447 36,000  Level Cleveland Center
12:54PM 40.9678 -78.4053 279° West 388 447 36,000  Level Cleveland Center
12:55PM 40.9872 -78.5475 280° West 388 447 36,000  Level Cleveland Center
12:56PM 41.0042 -78.6956 279° West 393 452 36,000  Level Cleveland Center
12:57PM 41.0211 -78.8383 279° West 393 452 36,000  Level Cleveland Center
12:58PM 41.0358 -78.9839 278° West 393 452 36,000  Level Cleveland Center
12:59PM 41.0544 -79.1264 280° West 393 452 36,000  Level Cleveland Center
01:00PM 41.0686 -79.2722 277° West 393 452 36,000  Level Cleveland Center
01:01PM 41.0847 -79.4150 279° West 393 452 36,000  Level Cleveland Center
01:02PM 41.1028 -79.5581 280° West 398 458 36,000  Level Cleveland Center
01:03PM 41.1167 -79.7039 277° West 398 458 36,000  Level Cleveland Center
01:04PM 41.1322 -79.8497 278° West 398 458 36,000  Level Cleveland Center
01:05PM 41.1475 -79.9958 278° West 409 471 36,000  Level Cleveland Center
01:06PM 41.1669 -80.1392 280° West 404 465 36,000  Level Cleveland Center
01:07PM 41.1800 -80.2853 277° West 404 465 36,000  Level Cleveland Center
01:08PM 41.1950 -80.4506 277° West 404 465 36,000  Level Cleveland Center
01:09PM 41.2094 -80.5942 278° West 404 465 36,000  Level Cleveland Center
01:10PM 41.2239 -80.7406 278° West 404 465 36,000  Level Cleveland Center
01:11PM 41.2383 -80.8897 277° West 404 465 36,000  Level Cleveland Center
01:12PM 41.2525 -81.0361 277° West 399 459 36,000  Level Cleveland Center
01:13PM 41.2664 -81.1825 277° West 405 466 36,000  Level Cleveland Center
01:14PM 41.2822 -81.3292 278° West 405 466 36,000  Level Cleveland Center
01:15PM 41.2958 -81.4592 278° West 405 466 36,000  Level Cleveland Center
01:16PM 41.3111 -81.6086 278° West 405 466 36,000  Level Cleveland Center
01:17PM 41.3244 -81.7556 277° West 405 466 36,000  Level Cleveland Center
01:18PM 41.3375 -81.9022 277° West 405 466 36,000  Level Cleveland Center
01:19PM 41.3522 -82.0519 278° West 412 474 36,000  Level Cleveland Center
01:20PM 41.3625 -82.2208 275° West 412 474 36,000  Level Cleveland Center
01:21PM 41.3686 -82.3678 273° West 411 473 36,000  Level Cleveland Center
01:22PM 41.3767 -82.5203 274° West 411 473 36,000  Level Cleveland Center
01:23PM 41.3847 -82.6533 275° West 405 466 36,000  Level Cleveland Center
01:24PM 41.3944 -82.8003 275° West 405 466 36,000  Level Cleveland Center
01:25PM 41.3997 -82.9500 273° West 405 466 36,000  Level Cleveland Center
01:26PM 41.4092 -83.0969 275° West 405 466 36,000  Level Cleveland Center
01:27PM 41.4178 -83.2608 274° West 410 472 36,000  Level Cleveland Center
01:28PM 41.4247 -83.4106 274° West 405 466 36,000  Level Cleveland Center
01:29PM 41.4292 -83.5606 272° West 405 466 36,000  Level Cleveland Center
01:30PM 41.4400 -83.7078 276° West 405 466 36,000  Level Cleveland Center
01:31PM 41.4461 -83.8575 273° West 405 466 36,000  Level Cleveland Center
01:32PM 41.4519 -84.0103 273° West 405 466 36,000 180 Level Cleveland Center
01:33PM 41.4600 -84.1633 274° West 405 466 36,400 600 Climbing Cleveland Center
01:34PM 41.4656 -84.4183 272° West 411 473 37,700 540 Climbing Chicago Center
01:35PM 41.4683 -84.5725 271° West 415 478 38,000 120 Climbing Chicago Center
01:36PM 41.4689 -84.7253 270° West 413 475 38,000  Level Chicago Center
01:38PM 41.4697 -84.9086 270° West 413 475 38,000  Level Chicago Center
01:39PM 41.4711 -85.0622 271° West 413 475 38,000  Level Chicago Center
01:40PM 41.4708 -85.2161 270° West 414 476 38,000  Level Chicago Center
01:41PM 41.4714 -85.3725 270° West 415 478 38,000  Level Chicago Center
01:42PM 41.4717 -85.5289 270° West 414 476 38,000  Level Chicago Center
01:43PM 41.4714 -85.6828 270° West 411 473 38,000  Level Chicago Center
01:44PM 41.4714 -85.8356 270° West 412 474 38,000  Level Chicago Center
01:45PM 41.4708 -85.9897 270° West 416 479 38,000  Level Chicago Center
01:46PM 41.4700 -86.1742 270° West 416 479 38,000  Level Chicago Center
01:47PM 41.4700 -86.3275 270° West 416 479 38,000  Level Chicago Center
01:48PM 41.4692 -86.4811 270° West 416 479 38,000  Level Chicago Center
01:49PM 41.4667 -86.6342 269° West 415 478 38,000  Level Chicago Center
01:50PM 41.4661 -86.7950 270° West 419 482 38,000  Level Chicago Center
01:51PM 41.4650 -86.9486 269° West 418 481 38,000  Level Chicago Center
01:52PM 41.4628 -87.1025 269° West 418 481 38,000  Level Chicago Center
01:53PM 41.4603 -87.2878 269° West 421 484 38,000  Level Chicago Center
01:54PM 41.4586 -87.4425 269° West 420 483 38,000  Level Chicago Center
01:55PM 41.4561 -87.5961 269° West 418 481 38,000  Level Chicago Center
01:56PM 41.4536 -87.7506 269° West 419 482 38,000  Level Chicago Center
01:57PM 41.4506 -87.9042 269° West 419 482 38,000  Level Chicago Center
01:58PM 41.4475 -88.0814 269° West 420 483 38,000  Level Chicago Center
01:59PM 41.4433 -88.2333 268° West 414 476 38,000  Level Chicago Center
02:00PM 41.4406 -88.3797 269° West 413 475 38,000  Level Chicago Center
02:01PM 41.4358 -88.5633 268° West 415 478 38,000  Level Chicago Center
02:02PM 41.4317 -88.7172 268° West 416 479 38,000  Level Chicago Center
02:03PM 41.4281 -88.8719 268° West 418 481 38,000  Level Chicago Center
02:04PM 41.4228 -89.0258 267° West 419 482 38,000  Level Chicago Center
02:05PM 41.4181 -89.1794 268° West 418 481 38,000  Level Chicago Center
02:06PM 41.4153 -89.3453 269° West 423 487 38,000  Level Chicago Center
02:07PM 41.4097 -89.5008 267° West 423 487 38,000  Level Chicago Center
02:08PM 41.4044 -89.6564 267° West 423 487 38,000  Level Chicago Center
02:10PM 41.3981 -89.8450 267° West 425 489 38,000  Level Chicago Center
02:11PM 41.3928 -90.0014 267° West 425 489 38,000  Level Chicago Center
02:12PM 41.3875 -90.1578 267° West 425 489 38,000  Level Chicago Center
02:13PM 41.3811 -90.3147 267° West 426 490 38,000  Level Chicago Center
02:14PM 41.3747 -90.4697 267° West 422 486 38,000  Level Chicago Center
02:15PM 41.3667 -90.6308 266° West 436 502 38,000  Level Chicago Center
02:16PM 41.3575 -90.8206 266° West 431 496 38,000  Level Chicago Center
02:17PM 41.3506 -90.9775 267° West 428 493 38,000  Level Chicago Center
02:18PM 41.3436 -91.1361 267° West 429 494 38,000  Level Chicago Center
02:19PM 41.3364 -91.2919 267° West 425 489 38,000  Level Chicago Center
02:20PM 41.3286 -91.4419 266° West 426 490 38,000  Level Chicago Center
02:21PM 41.3186 -91.6283 266° West 424 488 38,000  Level Chicago Center
02:22PM 41.3106 -91.7831 266° West 422 486 38,000  Level Chicago Center
02:23PM 41.3022 -91.9375 266° West 420 483 38,000  Level Chicago Center
02:24PM 41.2936 -92.0933 266° West 423 487 38,000  Level Chicago Center
02:25PM 41.2850 -92.2467 266° West 419 482 38,000  Level Chicago Center
02:26PM 41.2753 -92.4264 266° West 420 483 38,000  Level Chicago Center
02:27PM 41.2653 -92.5803 265° West 422 486 38,000  Level Chicago Center
02:28PM 41.2567 -92.7314 266° West 418 481 38,000  Level Chicago Center
02:28PM 41.2550 -92.7631 266° West 417 480 38,000  Level Minneapolis Center
02:29PM 41.2431 -92.9464 265° West 418 481 38,000  Level Minneapolis Center
02:30PM 41.2333 -93.0975 265° West 417 480 38,000  Level Minneapolis Center
02:31PM 41.2228 -93.2494 265° West 417 480 38,000  Level Minneapolis Center
02:32PM 41.2128 -93.4017 265° West 418 481 38,000  Level Minneapolis Center
02:33PM 41.2019 -93.5550 265° West 421 484 38,000  Level Minneapolis Center
02:35PM 41.1889 -93.7367 265° West 419 482 38,000  Level Minneapolis Center
02:36PM 41.1792 -93.8850 265° West 415 478 38,000  Level Minneapolis Center
02:37PM 41.1694 -94.0347 265° West 412 474 38,000  Level Minneapolis Center
02:38PM 41.1586 -94.1872 265° West 418 481 38,000  Level Minneapolis Center
02:39PM 41.1475 -94.3450 265° West 417 480 38,000  Level Minneapolis Center
02:40PM 41.1361 -94.4892 264° West 416 479 38,000  Level Minneapolis Center
02:41PM 41.1231 -94.6483 264° West 415 478 38,000  Level Minneapolis Center
02:42PM 41.1089 -94.8303 264° West 414 476 38,000  Level Minneapolis Center
02:43PM 41.0961 -94.9806 264° West 412 474 38,000  Level Minneapolis Center
02:44PM 41.0833 -95.1314 264° West 411 473 38,000  Level Minneapolis Center
02:45PM 41.0711 -95.2808 264° West 410 472 38,000  Level Minneapolis Center
02:46PM 41.0583 -95.4331 264° West 412 474 38,000  Level Minneapolis Center
02:47PM 41.0447 -95.5856 263° West 414 476 38,000  Level Minneapolis Center
02:48PM 41.0311 -95.7364 263° West 411 473 38,000  Level Minneapolis Center
02:49PM 41.0178 -95.8897 263° West 414 476 38,000  Level Minneapolis Center
02:50PM 41.0036 -96.0431 263° West 415 478 38,000  Level Minneapolis Center
02:51PM 40.9903 -96.1964 263° West 416 479 38,000  Level Minneapolis Center
02:52PM 40.9733 -96.3789 263° West 415 478 38,000  Level Minneapolis Center
02:53PM 40.9594 -96.5303 263° West 414 476 38,000  Level Minneapolis Center
02:54PM 40.9450 -96.6803 263° West 412 474 38,000  Level Minneapolis Center
02:55PM 40.9300 -96.8289 262° West 410 472 38,000  Level Minneapolis Center
02:56PM 40.9147 -96.9789 262° West 409 471 38,000  Level Minneapolis Center
02:57PM 40.9003 -97.1289 263° West 411 473 38,000  Level Minneapolis Center
02:58PM 40.8850 -97.2750 262° West 407 468 38,000  Level Minneapolis Center
02:59PM 40.8703 -97.4208 262° West 405 466 38,000  Level Minneapolis Center
03:00PM 40.8522 -97.5997 262° West 406 467 38,000  Level Minneapolis Center
03:01PM 40.8364 -97.7489 262° West 408 470 38,000  Level Minneapolis Center
03:02PM 40.8197 -97.8992 262° West 410 472 38,000  Level Minneapolis Center
03:03PM 40.8036 -98.0500 262° West 412 474 38,000  Level Minneapolis Center
03:04PM 40.7872 -98.2014 262° West 414 476 38,000  Level Minneapolis Center
03:05PM 40.7700 -98.3533 262° West 415 478 38,000  Level Minneapolis Center
03:06PM 40.7533 -98.5050 262° West 415 478 38,000  Level Minneapolis Center
03:07PM 40.7392 -98.6256 261° West 414 476 38,000  Level Minneapolis Center
03:08PM 40.7186 -98.8064 262° West 412 474 38,000  Level Minneapolis Center
03:09PM 40.7053 -98.9258 262° West 410 472 38,000  Level Minneapolis Center
03:10PM 40.6847 -99.1039 261° West 408 470 38,000  Level Minneapolis Center
03:11PM 40.6739 -99.1922 261° West 407 468 38,000  Level Denver Center
03:12PM 40.6561 -99.3389 261° West 405 466 38,000  Level Denver Center
03:13PM 40.6397 -99.4833 262° West 401 461 38,000  Level Denver Center
03:14PM 40.6197 -99.6272 260° West 399 459 38,000  Level Denver Center
03:15PM 40.6025 -99.7731 261° West 401 461 38,000  Level Denver Center
03:16PM 40.5836 -99.9256 261° West 402 463 38,000  Level Denver Center
03:17PM 40.5669 -100.0647 261° West 401 461 38,000  Level Denver Center
03:18PM 40.5458 -100.2289 260° West 405 466 38,000  Level Denver Center
03:19PM 40.5267 -100.3689 260° West 404 465 38,000  Level Denver Center
03:20PM 40.5056 -100.5347 261° West 409 471 38,000  Level Denver Center
03:21PM 40.4869 -100.6753 260° West 406 467 38,000  Level Denver Center
03:22PM 40.4647 -100.8419 260° West 411 473 38,000  Level Denver Center
03:23PM 40.4447 -100.9839 260° West 413 475 38,000  Level Denver Center
03:24PM 40.4278 -101.1264 261° West 412 474 38,000  Level Denver Center
03:25PM 40.4044 -101.2933 260° West 415 478 38,000  Level Denver Center
03:26PM 40.3847 -101.4353 260° West 414 476 38,000  Level Denver Center
03:27PM 40.3603 -101.6003 259° West 412 474 38,000  Level Denver Center
03:28PM 40.3408 -101.7428 260° West 414 476 38,000  Level Denver Center
03:29PM 40.3181 -101.9097 260° West 416 479 38,000  Level Denver Center
03:31PM 40.2967 -102.0503 259° West 412 474 38,000  Level Denver Center
03:32PM 40.2717 -102.2156 259° West 414 476 38,000  Level Denver Center
03:33PM 40.2522 -102.3567 260° West 413 475 38,000  Level Denver Center
03:34PM 40.2314 -102.4981 259° West 412 474 38,000  Level Denver Center
03:35PM 40.2064 -102.6633 259° West 416 479 38,000  Level Denver Center
03:36PM 40.1844 -102.8069 259° West 414 476 38,000  Level Denver Center
03:37PM 40.1619 -102.9544 259° West 412 474 38,000  Level Denver Center
03:38PM 40.1389 -103.1014 258° West 409 471 38,000  Level Denver Center
03:39PM 40.1139 -103.2742 259° West 412 474 38,000  Level Denver Center
03:40PM 40.0903 -103.4217 258° West 412 474 38,000  Level Denver Center
03:41PM 40.0661 -103.5681 258° West 410 472 38,000  Level Denver Center
03:42PM 40.0436 -103.7142 259° West 409 471 38,000  Level Denver Center
03:43PM 40.0203 -103.8636 259° West 412 474 38,000  Level Denver Center
03:44PM 39.9961 -104.0092 258° West 406 467 38,000  Level Denver Center
03:45PM 39.9725 -104.1567 258° West 410 472 38,000  Level Denver Center
03:46PM 39.9447 -104.3247 258° West 405 466 38,000  Level Denver Center
03:47PM 39.9211 -104.4697 258° West 407 468 38,000  Level Denver Center
03:48PM 39.8972 -104.6133 258° West 405 466 38,000  Level Denver Center
03:49PM 39.8697 -104.7522 256° West 398 458 38,000  Level Denver Center
03:50PM 39.8422 -104.8953 256° West 410 472 38,000  Level Denver Center
03:51PM 39.8156 -105.0325 256° West 393 452 38,000  Level Denver Center
03:52PM 39.7828 -105.2003 256° West 404 465 38,000  Level Denver Center
03:53PM 39.7550 -105.3397 256° West 397 457 38,000  Level Denver Center
03:54PM 39.7272 -105.4792 256° West 395 455 38,000  Level Denver Center
03:55PM 39.6989 -105.6194 255° West 395 455 38,000  Level Denver Center
03:56PM 39.6719 -105.7592 256° West 396 456 38,000  Level Denver Center
03:57PM 39.6439 -105.8992 255° West 394 453 38,000  Level Denver Center
03:58PM 39.6147 -106.0411 255° West 402 463 38,000  Level Denver Center
03:59PM 39.5839 -106.2022 256° West 402 463 38,000  Level Denver Center
04:00PM 39.5539 -106.3436 255° West 405 466 38,000  Level Denver Center
04:01PM 39.5247 -106.4847 255° West 406 467 38,000  Level Denver Center
04:03PM 39.4961 -106.6236 255° West 404 465 38,000  Level Denver Center
04:04PM 39.4628 -106.7825 255° West 407 468 38,000  Level Denver Center
04:05PM 39.4336 -106.9144 254° West 401 461 38,000  Level Denver Center
04:06PM 39.3958 -107.0686 252° West 401 461 38,000  Level Denver Center
04:07PM 39.3622 -107.2014 252° West 405 466 38,000  Level Denver Center
04:08PM 39.3289 -107.3328 252° West 403 464 38,000  Level Denver Center
04:09PM 39.2897 -107.4853 252° West 401 461 38,000  Level Denver Center
04:10PM 39.2561 -107.6147 251° West 398 458 38,000  Level Denver Center
04:11PM 39.2192 -107.7633 252° West 390 449 38,000  Level Denver Center
04:12PM 39.1844 -107.8939 251° West 395 455 38,000  Level Denver Center
04:13PM 39.1472 -108.0422 252° West 392 451 38,000  Level Denver Center
04:14PM 39.1128 -108.1708 251° West 393 452 38,000  Level Denver Center
04:15PM 39.0797 -108.2992 252° West 393 452 38,000  Level Denver Center
04:16PM 39.0444 -108.4281 251° West 396 456 38,000  Level Denver Center
04:17PM 39.0050 -108.5808 252° West 399 459 38,000  Level Denver Center
04:18PM 38.9639 -108.7325 251° West 401 461 38,000  Level Denver Center
04:19PM 38.9289 -108.8639 251° West 403 464 38,000  Level Denver Center
04:20PM 38.8883 -109.0153 251° West 401 461 38,000  Level Denver Center
04:21PM 38.8531 -109.1453 251° West 403 464 38,000  Level Denver Center
04:22PM 38.8175 -109.2767 251° West 407 468 38,000  Level Denver Center
04:23PM 38.7753 -109.4292 250° West 406 467 38,000  Level Denver Center
04:24PM 38.7394 -109.5608 251° West 409 471 38,000  Level Denver Center
04:25PM 38.6961 -109.7100 250° West 401 461 38,000  Level Denver Center
04:26PM 38.6600 -109.8433 251° West 411 473 38,000  Level Denver Center
04:27PM 38.6161 -109.9964 250° West 409 471 38,000 180 Level Denver Center
04:28PM 38.5747 -110.1486 251° West 407 468 38,500 900 Climbing Denver Center
04:29PM 38.5367 -110.2731 249° West 393 452 40,000 780 Climbing Salt Lake Center
04:30PM 38.4694 -110.3767 230° Southwest 393 452 40,000  Level Salt Lake Center
04:32PM 38.3925 -110.5275 237° Southwest 397 457 40,000  Level Denver Center
04:33PM 38.3344 -110.6414 237° Southwest 400 460 40,000  Level Denver Center
04:33PM 38.2717 -110.7553 235° Southwest 407 468 40,000  Level Salt Lake Center
04:34PM 38.2086 -110.8683 235° Southwest 409 471 40,000  Level Salt Lake Center
04:36PM 38.1386 -110.9947 235° Southwest 409 471 40,000  Level Salt Lake Center
04:37PM 38.0728 -111.1119 235° Southwest 408 470 40,000  Level Salt Lake Center
04:38PM 38.0064 -111.2297 234° Southwest 410 472 40,000  Level Salt Lake Center
04:39PM 37.9381 -111.3489 234° Southwest 417 480 40,000  Level Salt Lake Center
04:39PM 37.8972 -111.4200 234° Southwest 417 480 40,000  Level Denver Center
04:40PM 37.8711 -111.4683 236° Southwest 416 479 40,000  Level Salt Lake Center
04:41PM 37.8033 -111.5872 234° Southwest 416 479 40,000  Level Salt Lake Center
04:42PM 37.7336 -111.7036 233° Southwest 416 479 40,000  Level Salt Lake Center
04:43PM 37.6550 -111.8431 235° Southwest 408 470 40,000  Level Salt Lake Center
04:44PM 37.5875 -111.9586 234° Southwest 408 470 40,000  Level Salt Lake Center
04:45PM 37.5208 -112.0728 234° Southwest 405 466 40,000  Level Salt Lake Center
04:46PM 37.4539 -112.1878 234° Southwest 404 465 40,000  Level Salt Lake Center
04:47PM 37.3875 -112.3017 234° Southwest 403 464 40,000  Level Salt Lake Center
04:47PM 37.3614 -112.3467 234° Southwest 397 457 40,000  Level Los Angeles Center
04:48PM 37.3208 -112.4136 233° Southwest 400 460 40,000  Level Salt Lake Center
04:48PM 37.2939 -112.4583 233° Southwest 397 457 40,000  Level Los Angeles Center
04:49PM 37.2269 -112.5725 234° Southwest 401 461 40,000  Level Los Angeles Center
04:50PM 37.1869 -112.6411 234° Southwest 402 463 40,000  Level Salt Lake Center
04:51PM 37.1183 -112.7558 233° Southwest 404 465 40,000  Level Salt Lake Center
04:51PM 37.0908 -112.8033 234° Southwest 408 470 40,000  Level Los Angeles Center
04:52PM 37.0206 -112.9200 233° Southwest 414 476 40,000  Level Los Angeles Center
04:53PM 36.9367 -113.0603 233° Southwest 418 481 40,000  Level Los Angeles Center
04:54PM 36.8669 -113.1769 233° Southwest 418 481 40,000  Level Los Angeles Center
04:55PM 36.7975 -113.2939 233° Southwest 418 481 40,000  Level Los Angeles Center
04:56PM 36.7272 -113.4092 233° Southwest 418 481 40,000  Level Los Angeles Center
04:58PM 36.6578 -113.5244 233° Southwest 418 481 40,000  Level Los Angeles Center
04:59PM 36.5897 -113.6372 233° Southwest 411 473 40,000  Level Los Angeles Center
05:00PM 36.5075 -113.7708 233° Southwest 407 468 40,000  Level Los Angeles Center
05:01PM 36.4406 -113.8808 233° Southwest 402 463 40,000  Level Los Angeles Center
05:02PM 36.3731 -113.9922 233° Southwest 404 465 40,000  Level Los Angeles Center
05:03PM 36.3042 -114.1031 232° Southwest 403 464 40,000  Level Los Angeles Center
05:04PM 36.2353 -114.2144 233° Southwest 406 467 40,000  Level Los Angeles Center
05:05PM 36.1656 -114.3278 233° Southwest 410 472 40,000  Level Los Angeles Center
05:06PM 36.0944 -114.4394 232° Southwest 412 474 40,000  Level Los Angeles Center
05:07PM 36.0114 -114.5742 233° Southwest 410 472 40,000  Level Los Angeles Center
05:08PM 35.9419 -114.6858 232° Southwest 409 471 40,000  Level Los Angeles Center
05:09PM 35.8711 -114.7964 232° Southwest 409 471 40,000  Level Los Angeles Center
05:10PM 35.8014 -114.9067 232° Southwest 408 470 40,000  Level Los Angeles Center
05:11PM 35.7314 -115.0186 232° Southwest 411 473 40,000  Level Los Angeles Center
05:12PM 35.6617 -115.1297 232° Southwest 410 472 40,000  Level Los Angeles Center
05:13PM 35.5900 -115.2422 232° Southwest 413 475 40,000  Level Los Angeles Center
05:14PM 35.5042 -115.3769 232° Southwest 415 478 40,000  Level Los Angeles Center
05:15PM 35.4322 -115.4867 231° Southwest 414 476 40,000 -360 Level Los Angeles Center
05:16PM 35.3628 -115.5953 232° Southwest 413 475 39,300 -900 Descending Los Angeles Center
05:17PM 35.2906 -115.7069 232° Southwest 417 480 38,200 -1,260 Descending Los Angeles Center
05:18PM 35.2178 -115.8208 232° Southwest 421 484 36,800 -1,140 Descending Los Angeles Center
05:19PM 35.1408 -115.9358 231° Southwest 432 497 35,900 -900 Descending Los Angeles Center
05:20PM 35.0497 -116.0778 232° Southwest 440 506 35,000 -480 Descending Los Angeles Center
05:21PM 34.9733 -116.1931 231° Southwest 439 505 35,000  Level Los Angeles Center
05:22PM 34.8972 -116.3117 232° Southwest 443 510 35,000 -300 Level Los Angeles Center
05:23PM 34.8033 -116.4117 221° Southwest 454 522 34,400 -840 Descending Los Angeles Center
05:24PM 34.7078 -116.5103 220° Southwest 451 519 33,300 -1,080 Descending Los Angeles Center
05:25PM 34.6092 -116.6075 219° Southwest 454 522 32,200 -2,220 Descending Los Angeles Center
05:26PM 34.4900 -116.7286 220° Southwest 457 526 28,800 -3,180 Descending Los Angeles Center
05:28PM 34.3914 -116.8244 219° Southwest 460 529 25,700 -2,880 Descending Los Angeles Center
05:29PM 34.2956 -116.9200 219° Southwest 449 517 22,900 -2,640 Descending Los Angeles Center
05:30PM 34.2025 -117.0117 219° Southwest 435 501 20,200 -1,920 Descending Los Angeles Center
05:31PM 34.1200 -117.0986 221° Southwest 402 463 19,000 -900 Descending Los Angeles Center
05:31PM 34.0833 -117.1500 229° Southwest 361 415 19,000 -1,320 Level Southern California TRACON
05:32PM 34.0500 -117.2667 251° West 352 405 17,200 -1,860 Descending Southern California TRACON
05:33PM 34.0333 -117.3833 260° West 342 394 15,300 -1,980 Descending Southern California TRACON
05:34PM 34.0167 -117.5000 260° West 327 376 13,100 -1,920 Descending Southern California TRACON
05:35PM 34.0167 -117.6167 270° West 421 484 11,300 -1,500 Descending Southern California TRACON
05:36PM 34.0000 -117.7167 259° West 303 349 10,100 -1,200 Descending Southern California TRACON
05:37PM 34.0000 -117.8167 270° West 279 321 8,900 -1,260 Descending Southern California TRACON
05:38PM 33.9833 -117.9000 256° West 289 333 7,600 -1,200 Descending Southern California TRACON
05:39PM 33.9833 -118.0000 270° West 274 315 6,600 -1,260 Descending Southern California TRACON
05:40PM 33.9667 -118.0833 256° West 251 289 5,100 -1,500 Descending Southern California TRACON